createdAt,value
2022-09-23T00:01:26.376Z,100976.60
2022-09-23T00:03:54.564Z,100977.00
2022-09-23T00:06:24.054Z,100969.00
2022-09-23T00:08:52.654Z,100970.60
2022-09-23T00:11:26.494Z,100972.60
2022-09-23T00:13:58.043Z,100970.00
2022-09-23T00:16:32.597Z,100973.40
2022-09-23T00:19:02.638Z,100969.00
2022-09-23T00:21:30.829Z,100964.00
2022-09-23T00:23:58.703Z,100965.20
2022-09-23T00:26:27.635Z,100963.80
2022-09-23T00:28:55.478Z,100965.80
2022-09-23T00:31:27.338Z,100962.00
2022-09-23T00:34:01.388Z,100958.00
2022-09-23T00:36:30.134Z,100958.20
2022-09-23T00:38:58.019Z,100955.60
2022-09-23T00:41:26.749Z,100957.00
2022-09-23T00:43:59.385Z,100960.60
2022-09-23T00:46:36.209Z,100958.40
2022-09-23T00:49:32.010Z,100957.40
2022-09-23T00:52:13.257Z,100958.80
2022-09-23T00:54:42.513Z,100961.20
2022-09-23T00:57:11.722Z,100963.20
2022-09-23T00:59:39.798Z,100961.00
2022-09-23T01:02:09.743Z,100956.00
2022-09-23T01:04:38.060Z,100953.80
2022-09-23T01:07:06.071Z,100957.20
2022-09-23T01:09:34.049Z,100960.00
2022-09-23T01:12:27.180Z,100957.40
2022-09-23T01:15:21.163Z,100958.00
2022-09-23T01:18:16.842Z,100951.00
2022-09-23T01:21:17.918Z,100946.80
2022-09-23T01:24:20.914Z,100942.40
2022-09-23T01:27:31.279Z,100948.20
2022-09-23T01:30:13.897Z,100948.80
2022-09-23T01:33:24.291Z,100950.00
2022-09-23T01:36:24.025Z,100949.80
2022-09-23T01:39:35.404Z,100952.60
2022-09-23T01:42:27.559Z,100953.20
2022-09-23T01:45:08.966Z,100954.40
2022-09-23T01:47:42.561Z,100957.40
2022-09-23T01:50:36.321Z,100952.20
2022-09-23T01:53:17.036Z,100951.60
2022-09-23T01:55:52.264Z,100951.40
2022-09-23T01:58:28.595Z,100948.20
2022-09-23T02:01:02.893Z,100948.60
2022-09-23T02:03:50.383Z,100943.40
2022-09-23T02:06:32.046Z,100943.20
2022-09-23T02:09:04.879Z,100943.20
2022-09-23T02:11:36.425Z,100944.40
2022-09-23T02:14:16.793Z,100942.80
2022-09-23T02:16:52.036Z,100943.40
2022-09-23T02:19:50.743Z,100939.20
2022-09-23T02:22:26.011Z,100948.00
2022-09-23T02:24:57.471Z,100942.60
2022-09-23T02:28:12.618Z,100944.40
2022-09-23T02:31:29.977Z,100943.00
2022-09-23T02:34:06.742Z,100944.20
2022-09-23T02:37:18.664Z,100943.60
2022-09-23T02:40:13.968Z,100939.80
2022-09-23T02:42:50.151Z,100940.80
2022-09-23T02:45:18.508Z,100941.40
2022-09-23T02:47:56.742Z,100941.60
2022-09-23T02:50:25.016Z,100947.80
2022-09-23T02:52:52.799Z,100947.80
2022-09-23T02:55:23.429Z,100946.20
2022-09-23T02:57:53.475Z,100945.40
2022-09-23T03:00:21.295Z,100945.80
2022-09-23T03:03:17.287Z,100945.00
2022-09-23T03:05:55.075Z,100948.00
2022-09-23T03:08:37.651Z,100950.20
2022-09-23T03:11:13.545Z,100951.00
2022-09-23T03:14:25.605Z,100953.20
2022-09-23T03:17:07.072Z,100947.60
2022-09-23T03:20:02.662Z,100946.00
2022-09-23T03:22:48.858Z,100941.20
2022-09-23T03:25:22.623Z,100941.60
2022-09-23T03:27:51.777Z,100944.80
2022-09-23T03:30:21.746Z,100940.20
2022-09-23T03:32:51.602Z,100946.20
2022-09-23T03:35:22.888Z,100946.40
2022-09-23T03:38:17.361Z,100948.80
2022-09-23T03:40:50.964Z,100943.40
2022-09-23T03:43:18.894Z,100942.60
2022-09-23T03:45:47.556Z,100936.40
2022-09-23T03:48:15.723Z,100938.60
2022-09-23T03:50:44.356Z,100937.00
2022-09-23T03:53:13.753Z,100937.40
2022-09-23T03:55:41.549Z,100936.80
2022-09-23T03:58:09.734Z,100934.20
2022-09-23T04:00:37.635Z,100938.80
2022-09-23T04:03:10.927Z,100942.20
2022-09-23T04:05:39.523Z,100936.00
2022-09-23T04:08:07.532Z,100934.60
2022-09-23T04:10:35.392Z,100934.40
2022-09-23T04:13:03.235Z,100931.40
2022-09-23T04:15:31.005Z,100929.20
2022-09-23T04:17:58.803Z,100932.60
2022-09-23T04:20:28.684Z,100930.60
2022-09-23T04:22:56.683Z,100934.80
2022-09-23T04:25:24.631Z,100937.40
2022-09-23T04:27:52.396Z,100935.20
2022-09-23T04:30:20.212Z,100942.00
2022-09-23T04:32:48.087Z,100942.20
2022-09-23T04:35:16.048Z,100943.00
2022-09-23T04:37:44.365Z,100943.20
2022-09-23T04:40:12.385Z,100942.40
2022-09-23T04:42:40.173Z,100945.20
2022-09-23T04:45:08.589Z,100943.20
2022-09-23T04:47:36.925Z,100947.60
2022-09-23T04:50:05.148Z,100947.80
2022-09-23T04:52:33.121Z,100943.60
2022-09-23T04:55:01.627Z,100944.20
2022-09-23T04:57:29.896Z,100942.00
2022-09-23T04:59:57.949Z,100944.00
2022-09-23T05:02:25.947Z,100937.60
2022-09-23T05:04:55.552Z,100940.60
2022-09-23T05:07:23.353Z,100939.00
2022-09-23T05:09:51.184Z,100940.80
2022-09-23T05:12:18.925Z,100935.80
2022-09-23T05:14:46.670Z,100940.60
2022-09-23T05:17:14.789Z,100943.20
2022-09-23T05:19:42.632Z,100939.80
2022-09-23T05:22:10.442Z,100940.40
2022-09-23T05:24:38.381Z,100940.80
2022-09-23T05:27:09.352Z,100942.00
2022-09-23T05:29:38.626Z,100945.40
2022-09-23T05:32:06.459Z,100938.00
2022-09-23T05:34:34.578Z,100941.20
2022-09-23T05:37:02.770Z,100940.20
2022-09-23T05:39:30.674Z,100946.20
2022-09-23T05:42:00.184Z,100948.00
2022-09-23T05:44:28.235Z,100950.20
2022-09-23T05:46:56.351Z,100942.40
2022-09-23T05:49:42.626Z,100948.20
2022-09-23T05:52:12.319Z,100952.20
2022-09-23T05:54:40.895Z,100954.80
2022-09-23T05:57:08.835Z,100951.20
2022-09-23T05:59:38.068Z,100958.60
2022-09-23T06:02:06.351Z,100961.20
2022-09-23T06:04:34.491Z,100962.20
2022-09-23T06:07:03.659Z,100958.20
2022-09-23T06:09:36.339Z,100957.60
2022-09-23T06:12:06.456Z,100957.20
2022-09-23T06:14:34.324Z,100953.60
2022-09-23T06:17:02.065Z,100953.80
2022-09-23T06:19:29.868Z,100955.40
2022-09-23T06:21:58.103Z,100953.00
2022-09-23T06:24:30.849Z,100951.40
2022-09-23T06:26:59.406Z,100953.00
2022-09-23T06:29:28.128Z,100950.80
2022-09-23T06:31:55.953Z,100952.60
2022-09-23T06:34:23.817Z,100955.20
2022-09-23T06:36:52.005Z,100951.20
2022-09-23T06:39:19.946Z,100952.40
2022-09-23T06:41:48.171Z,100950.20
2022-09-23T06:44:16.614Z,100949.20
2022-09-23T06:46:44.636Z,100953.60
2022-09-23T06:49:13.002Z,100950.60
2022-09-23T06:51:41.412Z,100952.00
2022-09-23T06:54:09.593Z,100950.60
2022-09-23T06:56:39.572Z,100948.60
2022-09-23T06:59:13.046Z,100949.60
2022-09-23T07:01:41.792Z,100945.20
2022-09-23T07:04:10.797Z,100947.20
2022-09-23T07:06:39.603Z,100949.40
2022-09-23T07:09:08.716Z,100952.60
2022-09-23T07:11:37.094Z,100954.80
2022-09-23T07:14:05.478Z,100960.80
2022-09-23T07:16:33.597Z,100962.40
2022-09-23T07:19:01.438Z,100963.80
2022-09-23T07:21:29.443Z,100959.60
2022-09-23T07:23:58.276Z,100956.60
2022-09-23T07:26:26.292Z,100960.60
2022-09-23T07:29:04.708Z,100950.80
2022-09-23T07:31:39.091Z,100955.00
2022-09-23T07:34:11.568Z,100953.80
2022-09-23T07:36:40.958Z,100947.40
2022-09-23T07:39:12.743Z,100947.60
2022-09-23T07:41:44.336Z,100944.80
2022-09-23T07:44:12.532Z,100946.20
2022-09-23T07:46:41.115Z,100940.00
2022-09-23T07:49:09.575Z,100947.40
2022-09-23T07:51:39.520Z,100941.40
2022-09-23T07:54:12.106Z,100940.00
2022-09-23T07:56:41.462Z,100947.00
2022-09-23T07:59:15.450Z,100944.40
2022-09-23T08:01:48.312Z,100940.60
2022-09-23T08:04:23.763Z,100938.60
2022-09-23T08:07:01.395Z,100942.60
2022-09-23T08:09:41.897Z,100945.80
2022-09-23T08:12:16.067Z,100944.80
2022-09-23T08:14:44.852Z,100944.20
2022-09-23T08:17:13.932Z,100947.80
2022-09-23T08:19:41.840Z,100941.20
2022-09-23T08:22:09.621Z,100939.60
2022-09-23T08:24:37.468Z,100931.80
2022-09-23T08:27:05.375Z,100928.20
2022-09-23T08:29:33.193Z,100928.60
2022-09-23T08:32:01.310Z,100925.60
2022-09-23T08:34:29.780Z,100927.60
2022-09-23T08:36:57.632Z,100927.20
2022-09-23T08:39:26.165Z,100925.20
2022-09-23T08:41:59.005Z,100925.00
2022-09-23T08:44:45.389Z,100927.20
2022-09-23T08:47:28.000Z,100921.60
2022-09-23T08:50:11.668Z,100932.00
2022-09-23T08:52:50.580Z,100926.60
2022-09-23T08:55:22.396Z,100927.20
2022-09-23T08:58:41.783Z,100926.40
2022-09-23T09:01:45.485Z,100925.40
2022-09-23T09:04:31.831Z,100926.20
2022-09-23T09:07:35.237Z,100922.60
2022-09-23T09:10:26.064Z,100918.20
2022-09-23T09:13:07.628Z,100913.60
2022-09-23T09:15:46.355Z,100921.80
2022-09-23T09:18:20.993Z,100916.20
2022-09-23T09:20:57.847Z,100914.40
2022-09-23T09:23:59.817Z,100910.00
2022-09-23T09:26:32.724Z,100913.00
2022-09-23T09:29:35.261Z,100903.40
2022-09-23T09:32:33.736Z,100907.20
2022-09-23T09:35:16.195Z,100899.60
2022-09-23T09:37:47.500Z,100901.80
2022-09-23T09:40:17.339Z,100893.00
2022-09-23T09:42:49.673Z,100895.60
2022-09-23T09:45:36.176Z,100893.20
2022-09-23T09:48:17.715Z,100891.00
2022-09-23T09:50:52.090Z,100892.60
2022-09-23T09:53:32.118Z,100888.60
2022-09-23T09:56:05.019Z,100885.00
2022-09-23T09:59:01.680Z,100882.80
2022-09-23T10:01:32.537Z,100885.00
2022-09-23T10:04:19.892Z,100878.80
2022-09-23T10:07:09.855Z,100868.40
2022-09-23T10:09:40.286Z,100874.80
2022-09-23T10:12:23.945Z,100873.20
2022-09-23T10:14:57.203Z,100866.60
2022-09-23T10:17:35.826Z,100863.00
2022-09-23T10:20:09.159Z,100856.40
2022-09-23T10:22:42.532Z,100861.20
2022-09-23T10:25:20.386Z,100853.60
2022-09-23T10:27:48.300Z,100846.80
2022-09-23T10:30:28.286Z,100847.40
2022-09-23T10:32:57.055Z,100853.40
2022-09-23T10:35:26.614Z,100852.00
2022-09-23T10:37:57.384Z,100846.60
2022-09-23T10:40:58.065Z,100842.60
2022-09-23T10:44:16.605Z,100844.00
2022-09-23T10:47:14.927Z,100840.00
2022-09-23T10:50:23.195Z,100841.60
2022-09-23T10:53:05.069Z,100840.40
2022-09-23T10:56:03.729Z,100831.40
2022-09-23T10:58:54.972Z,100838.80
2022-09-23T11:01:40.829Z,100838.60
2022-09-23T11:04:52.985Z,100827.40
2022-09-23T11:07:39.097Z,100827.60
2022-09-23T11:10:45.890Z,100825.60
2022-09-23T11:13:30.317Z,100824.00
2022-09-23T11:16:05.345Z,100826.80
2022-09-23T11:18:51.525Z,100829.80
2022-09-23T11:21:58.409Z,100828.00
2022-09-23T11:25:12.049Z,100827.80
2022-09-23T11:28:19.988Z,100823.40
2022-09-23T11:31:17.500Z,100819.60
2022-09-23T11:34:22.345Z,100815.40
2022-09-23T11:37:04.174Z,100815.20
2022-09-23T11:39:44.223Z,100813.60
2022-09-23T11:42:26.299Z,100809.00
2022-09-23T11:45:25.614Z,100803.40
2022-09-23T11:48:16.975Z,100808.20
2022-09-23T11:50:57.176Z,100814.00
2022-09-23T11:53:48.451Z,100809.80
2022-09-23T11:56:36.280Z,100805.00
2022-09-23T11:59:24.063Z,100809.80
2022-09-23T12:02:30.446Z,100801.80
2022-09-23T12:05:30.895Z,100800.80
2022-09-23T12:08:32.449Z,100796.80
2022-09-23T12:11:22.187Z,100795.80
2022-09-23T12:14:39.072Z,100780.40
2022-09-23T12:17:51.641Z,100781.00
2022-09-23T12:20:26.191Z,100778.00
2022-09-23T12:23:34.572Z,100772.00
2022-09-23T12:26:19.588Z,100779.20
2022-09-23T12:28:50.775Z,100776.20
2022-09-23T12:31:30.687Z,100778.00
2022-09-23T12:34:01.903Z,100782.40
2022-09-23T12:36:34.892Z,100781.00
2022-09-23T12:39:34.521Z,100777.80
2022-09-23T12:42:06.570Z,100781.60
2022-09-23T12:44:42.087Z,100776.00
2022-09-23T12:47:25.263Z,100775.80
2022-09-23T12:49:54.482Z,100769.00
2022-09-23T12:52:30.976Z,100773.60
2022-09-23T12:55:23.258Z,100764.80
2022-09-23T12:57:51.219Z,100767.00
2022-09-23T13:00:26.430Z,100769.00
2022-09-23T13:03:18.670Z,100759.00
2022-09-23T13:06:20.168Z,100757.80
2022-09-23T13:08:52.844Z,100754.20
2022-09-23T13:11:32.645Z,100753.80
2022-09-23T13:14:05.230Z,100752.20
2022-09-23T13:16:45.616Z,100753.00
2022-09-23T13:19:25.995Z,100752.40
2022-09-23T13:21:53.997Z,100750.20
2022-09-23T13:24:31.209Z,100750.40
2022-09-23T13:27:02.087Z,100752.00
2022-09-23T13:29:39.111Z,100750.20
2022-09-23T13:32:18.676Z,100748.00
2022-09-23T13:35:15.749Z,100749.20
2022-09-23T13:37:47.801Z,100747.80
2022-09-23T13:40:28.590Z,100738.40
2022-09-23T13:43:09.278Z,100740.20
2022-09-23T13:45:43.203Z,100739.60
2022-09-23T13:48:15.503Z,100733.20
2022-09-23T13:50:49.225Z,100734.00
2022-09-23T13:53:32.509Z,100732.80
2022-09-23T13:56:29.873Z,100733.00
2022-09-23T13:59:42.267Z,100732.20
2022-09-23T14:02:16.895Z,100730.60
2022-09-23T14:04:46.089Z,100729.60
2022-09-23T14:07:16.959Z,100726.20
2022-09-23T14:09:51.055Z,100727.40
2022-09-23T14:12:22.427Z,100722.20
2022-09-23T14:14:52.530Z,100722.00
2022-09-23T14:17:25.600Z,100727.80
2022-09-23T14:19:53.719Z,100719.80
2022-09-23T14:22:28.619Z,100716.80
2022-09-23T14:24:58.519Z,100719.20
2022-09-23T14:27:32.886Z,100717.60
2022-09-23T14:30:03.500Z,100718.80
2022-09-23T14:32:33.040Z,100712.40
2022-09-23T14:35:04.020Z,100717.20
2022-09-23T14:37:59.764Z,100716.60
2022-09-23T14:40:33.477Z,100716.20
2022-09-23T14:43:26.674Z,100713.80
2022-09-23T14:45:57.932Z,100714.40
2022-09-23T14:48:34.191Z,100710.00
2022-09-23T14:51:10.816Z,100700.20
2022-09-23T14:53:43.683Z,100700.00
2022-09-23T14:56:22.351Z,100708.60
2022-09-23T14:59:00.675Z,100700.20
2022-09-23T15:01:32.156Z,100700.80
2022-09-23T15:04:22.202Z,100702.80
2022-09-23T15:06:53.774Z,100702.60
2022-09-23T15:09:26.703Z,100692.60
2022-09-23T15:12:05.894Z,100689.20
2022-09-23T15:15:02.997Z,100688.20
2022-09-23T15:17:37.536Z,100685.80
2022-09-23T15:20:21.871Z,100690.60
2022-09-23T15:22:54.097Z,100689.20
2022-09-23T15:25:32.964Z,100689.00
2022-09-23T15:28:12.971Z,100686.60
2022-09-23T15:30:41.288Z,100690.00
2022-09-23T15:33:14.944Z,100685.80
2022-09-23T15:35:49.065Z,100686.20
2022-09-23T15:38:17.861Z,100682.80
2022-09-23T15:40:45.895Z,100684.00
2022-09-23T15:43:21.457Z,100684.00
2022-09-23T15:45:56.470Z,100681.80
2022-09-23T15:48:38.825Z,100692.00
2022-09-23T15:51:09.811Z,100684.60
2022-09-23T15:53:38.341Z,100692.60
2022-09-23T15:56:06.359Z,100693.00
2022-09-23T15:58:34.458Z,100692.40
2022-09-23T16:01:03.828Z,100693.20
2022-09-23T16:03:31.871Z,100689.40
2022-09-23T16:06:03.206Z,100688.60
2022-09-23T16:08:33.077Z,100686.40
2022-09-23T16:11:01.082Z,100689.40
2022-09-23T16:13:29.036Z,100690.40
2022-09-23T16:15:56.852Z,100687.00
2022-09-23T16:18:24.740Z,100691.00
2022-09-23T16:20:52.738Z,100692.60
2022-09-23T16:23:38.643Z,100700.40
2022-09-23T16:26:25.381Z,100698.40
2022-09-23T16:28:55.863Z,100699.20
2022-09-23T16:31:25.721Z,100697.60
2022-09-23T16:33:54.006Z,100696.00
2022-09-23T16:36:33.861Z,100695.40
2022-09-23T16:39:07.516Z,100695.40
2022-09-23T16:41:35.446Z,100697.20
2022-09-23T16:44:06.245Z,100694.60
2022-09-23T16:46:34.865Z,100694.20
2022-09-23T16:49:02.943Z,100691.80
2022-09-23T16:51:38.071Z,100694.20
2022-09-23T16:54:17.412Z,100692.60
2022-09-23T16:56:45.602Z,100691.80
2022-09-23T16:59:15.641Z,100693.00
2022-09-23T17:02:02.548Z,100690.40
2022-09-23T17:04:31.527Z,100684.80
2022-09-23T17:06:59.321Z,100685.20
2022-09-23T17:09:29.217Z,100684.80
2022-09-23T17:12:35.146Z,100684.40
2022-09-23T17:15:07.518Z,100686.00
2022-09-23T17:17:37.554Z,100683.40
2022-09-23T17:20:06.748Z,100685.60
2022-09-23T17:22:34.614Z,100685.80
2022-09-23T17:25:03.956Z,100686.00
2022-09-23T17:27:32.078Z,100691.20
2022-09-23T17:29:59.866Z,100688.00
2022-09-23T17:32:27.811Z,100687.60
2022-09-23T17:34:55.717Z,100687.60
2022-09-23T17:37:23.609Z,100687.80
2022-09-23T17:39:51.564Z,100689.60
2022-09-23T17:42:19.432Z,100692.60
2022-09-23T17:44:48.110Z,100691.00
2022-09-23T17:47:16.001Z,100693.00
2022-09-23T17:49:46.875Z,100696.60
2022-09-23T17:52:14.656Z,100699.00
2022-09-23T17:54:42.731Z,100694.80
2022-09-23T17:57:11.077Z,100695.40
2022-09-23T17:59:39.164Z,100692.40
2022-09-23T18:02:07.014Z,100696.20
2022-09-23T18:04:34.778Z,100688.80
2022-09-23T18:07:02.762Z,100691.00
2022-09-23T18:09:30.782Z,100693.80
2022-09-23T18:11:58.568Z,100691.00
2022-09-23T18:14:26.406Z,100694.80
2022-09-23T18:16:54.468Z,100691.40
2022-09-23T18:19:24.754Z,100699.40
2022-09-23T18:21:56.422Z,100696.20
2022-09-23T18:24:33.400Z,100695.80
2022-09-23T18:27:03.344Z,100693.80
2022-09-23T18:29:33.288Z,100693.60
2022-09-23T18:32:02.135Z,100693.80
2022-09-23T18:34:31.146Z,100693.20
2022-09-23T18:36:59.016Z,100692.40
2022-09-23T18:39:26.885Z,100699.80
2022-09-23T18:41:55.561Z,100703.00
2022-09-23T18:44:24.409Z,100707.60
2022-09-23T18:46:52.466Z,100707.60
2022-09-23T18:49:38.728Z,100707.00
2022-09-23T18:52:06.629Z,100708.40
2022-09-23T18:54:34.480Z,100706.40
2022-09-23T18:57:02.315Z,100710.20
2022-09-23T18:59:33.583Z,100712.80
2022-09-23T19:02:02.059Z,100709.40
2022-09-23T19:04:30.069Z,100706.00
2022-09-23T19:06:58.855Z,100705.80
2022-09-23T19:09:26.760Z,100703.60
2022-09-23T19:11:54.603Z,100705.20
2022-09-23T19:14:22.678Z,100703.00
2022-09-23T19:16:50.832Z,100702.60
2022-09-23T19:20:25.898Z,100704.20
2022-09-23T19:22:54.452Z,100701.40
2022-09-23T19:25:22.594Z,100701.60
2022-09-23T19:27:50.480Z,100707.20
2022-09-23T19:30:19.530Z,100704.60
2022-09-23T19:32:49.126Z,100703.40
2022-09-23T19:35:20.613Z,100699.60
2022-09-23T19:37:49.888Z,100708.20
2022-09-23T19:40:17.931Z,100713.60
2022-09-23T19:42:46.236Z,100715.00
2022-09-23T19:45:14.309Z,100715.00
2022-09-23T19:47:42.297Z,100715.20
2022-09-23T19:50:10.686Z,100717.20
2022-09-23T19:52:38.841Z,100715.60
2022-09-23T19:55:08.323Z,100714.20
2022-09-23T19:57:36.261Z,100708.60
2022-09-23T20:00:05.529Z,100712.20
2022-09-23T20:02:40.163Z,100711.80
2022-09-23T20:05:11.863Z,100715.00
2022-09-23T20:07:41.769Z,100714.00
2022-09-23T20:10:11.842Z,100712.20
2022-09-23T20:12:42.346Z,100713.20
2022-09-23T20:15:14.476Z,100708.60
2022-09-23T20:17:42.706Z,100707.60
2022-09-23T20:20:13.413Z,100711.60
2022-09-23T20:22:42.093Z,100701.00
2022-09-23T20:25:13.524Z,100704.80
2022-09-23T20:27:41.397Z,100701.00
2022-09-23T20:30:10.004Z,100702.40
2022-09-23T20:32:44.613Z,100695.80
2022-09-23T20:35:13.705Z,100694.40
2022-09-23T20:37:41.452Z,100690.80
2022-09-23T20:40:10.299Z,100690.20
2022-09-23T20:42:38.525Z,100687.80
2022-09-23T20:45:07.416Z,100682.80
2022-09-23T20:47:35.275Z,100688.60
2022-09-23T20:50:03.231Z,100695.00
2022-09-23T20:52:31.151Z,100693.80
2022-09-23T20:54:59.236Z,100691.40
2022-09-23T20:57:28.120Z,100691.60
2022-09-23T20:59:55.937Z,100688.40
2022-09-23T21:02:25.526Z,100687.00
2022-09-23T21:04:53.479Z,100687.60
2022-09-23T21:07:23.827Z,100681.80
2022-09-23T21:09:51.696Z,100682.00
2022-09-23T21:12:19.571Z,100686.20
2022-09-23T21:14:47.469Z,100685.00
2022-09-23T21:17:15.355Z,100689.60
2022-09-23T21:19:43.185Z,100691.00
2022-09-23T21:22:12.414Z,100689.20
2022-09-23T21:25:16.146Z,100687.20
2022-09-23T21:27:29.653Z,100683.60
2022-09-23T21:29:58.995Z,100686.40
2022-09-23T21:32:26.864Z,100685.40
2022-09-23T21:34:54.951Z,100683.60
2022-09-23T21:37:23.018Z,100686.60
2022-09-23T21:40:10.932Z,100682.60
2022-09-23T21:42:38.965Z,100688.60
2022-09-23T21:45:07.288Z,100688.00
2022-09-23T21:47:35.686Z,100689.60
2022-09-23T21:50:04.660Z,100689.40
2022-09-23T21:52:32.950Z,100692.00
2022-09-23T21:55:01.076Z,100690.80
2022-09-23T21:57:30.601Z,100690.00
2022-09-23T21:59:58.588Z,100687.40
2022-09-23T22:02:27.559Z,100690.20
2022-09-23T22:04:55.416Z,100690.00
2022-09-23T22:07:23.928Z,100698.40
2022-09-23T22:09:51.879Z,100698.60
2022-09-23T22:12:19.721Z,100698.00
2022-09-23T22:14:48.041Z,100696.40
2022-09-23T22:17:16.343Z,100694.20
2022-09-23T22:19:47.243Z,100697.60
2022-09-23T22:22:18.117Z,100695.40
2022-09-23T22:24:47.777Z,100687.20
2022-09-23T22:27:19.598Z,100691.80
2022-09-23T22:30:06.905Z,100689.60
2022-09-23T22:32:41.195Z,100688.20
2022-09-23T22:35:17.802Z,100689.60
2022-09-23T22:37:47.998Z,100687.00
2022-09-23T22:40:16.201Z,100685.00
2022-09-23T22:42:44.220Z,100686.80
2022-09-23T22:45:12.946Z,100683.60
2022-09-23T22:47:45.357Z,100683.00
2022-09-23T22:50:14.884Z,100676.40
2022-09-23T22:52:43.853Z,100676.00
2022-09-23T22:55:12.628Z,100675.40
2022-09-23T22:57:40.464Z,100671.40
2022-09-23T23:00:10.007Z,100675.00
2022-09-23T23:02:38.443Z,100672.60
2022-09-23T23:05:07.315Z,100667.80
2022-09-23T23:07:36.263Z,100665.40
2022-09-23T23:10:07.307Z,100668.00
2022-09-23T23:12:35.253Z,100664.60
2022-09-23T23:15:03.390Z,100667.20
2022-09-23T23:17:31.545Z,100662.20
2022-09-23T23:19:59.961Z,100658.20
2022-09-23T23:22:28.681Z,100658.40
2022-09-23T23:24:57.070Z,100656.80
2022-09-23T23:27:24.943Z,100656.60
2022-09-23T23:29:52.742Z,100655.60
2022-09-23T23:32:20.726Z,100647.80
2022-09-23T23:34:48.563Z,100648.40
2022-09-23T23:37:20.644Z,100645.20
2022-09-23T23:39:48.969Z,100644.40
2022-09-23T23:42:17.117Z,100645.20
2022-09-23T23:44:45.112Z,100648.00
2022-09-23T23:47:12.933Z,100646.40
2022-09-23T23:49:40.802Z,100648.00
2022-09-23T23:52:08.673Z,100650.00
2022-09-23T23:54:36.572Z,100651.60
2022-09-23T23:57:04.520Z,100645.80
2022-09-23T23:59:34.377Z,100648.20
